Flight Track Log - Related Links

Times and Time Zones

All times are in EDT time to prevent confusion due to time zone crossing. See the DAL268 flight status page for this flight to view local times or setup timezone preferences in your user account.

Time Position Orientation Groundspeed Altitude Reporting Facility
EDT Latitude Longitude Course Direction KTS MPH feet Rate Location/Type
Wed 23:56:12 40.6190 -73.7880 207° Southwest 166 191 600  Level FlightAware ADS-B
Wed 23:56:37 40.6010 -73.8010 209° Southwest 172 198 1,400 1,560 Climbing FlightAware ADS-B
Wed 23:57:02 40.5810 -73.8090 197° South 206 237 1,900 1,467 Climbing FlightAware ADS-B
Wed 23:57:22 40.5610 -73.8000 161° South 236 272 2,500 1,371 Climbing FlightAware ADS-B
Wed 23:57:37 40.5510 -73.7850 131° Southeast 260 299 2,700 1,400 Climbing FlightAware ADS-B
Wed 23:57:52 40.5440 -73.7600 110° East 275 316 3,200 1,855 Climbing FlightAware ADS-B
Wed 23:58:32 40.5440 -73.6940 90° East 296 341 4,400 2,031 Climbing FlightAware ADS-B
Wed 23:58:57 40.5450 -73.6420 89° East 308 354 5,400 2,182 Climbing FlightAware ADS-B
Wed 23:59:27 40.5460 -73.5880 89° East 321 369 6,400 2,667 Climbing FlightAware ADS-B
Wed 23:59:51 40.5468 -73.5375 89° East 316 364 7,800 3,143 Climbing FlightAware ADS-B
Thu 00:00:09 40.5472 -73.5013 89° East 315 362 8,600 2,364 Climbing FlightAware ADS-B
Thu 00:00:24 40.5489 -73.4720 86° East 326 375 9,100 1,826 Climbing FlightAware ADS-B
Thu 00:00:32 40.5509 -73.4560 81° East 331 381 9,300 2,000 Climbing FlightAware ADS-B
Thu 00:00:39 40.5533 -73.4422 77° East 334 384 9,600 2,615 Climbing FlightAware ADS-B
Thu 00:01:11 40.5672 -73.3799 74° East 334 384 11,000 1,810 Climbing FlightAware ADS-B
Thu 00:01:42 40.5810 -73.3166 74° East 362 417 11,500 1,238 Climbing FlightAware ADS-B
Thu 00:02:14 40.5964 -73.2458 74° East 385 443 12,300 1,161 Climbing FlightAware ADS-B
Thu 00:02:44 40.6130 -73.1760 73° East 413 475 12,700 677 Climbing FlightAware ADS-B
Thu 00:03:16 40.6319 -73.0968 73° East 430 495 13,000 381 Climbing FlightAware ADS-B
Thu 00:03:47 40.6499 -73.0197 73° East 429 494 13,100 1,377 Climbing FlightAware ADS-B
Thu 00:04:17 40.6677 -72.9444 73° East 431 496 14,400 2,556 Climbing FlightAware ADS-B
Thu 00:04:41 40.6816 -72.8841 73° East 432 497 15,400 1,889 Climbing FlightAware ADS-B
Thu 00:05:11 40.6982 -72.8071 74° East 444 511 16,100 1,672 Climbing FlightAware ADS-B
Thu 00:05:42 40.7155 -72.7281 74° East 451 519 17,100 1,742 Climbing FlightAware ADS-B
Thu 00:06:13 40.7338 -72.6454 74° East 460 529 17,900 952 Climbing FlightAware ADS-B
Thu 00:06:45 40.7533 -72.5560 74° East 463 533 18,100 882 Climbing FlightAware ADS-B
Thu 00:07:21 40.7745 -72.4607 74° East 468 539 18,900 818 Climbing FlightAware ADS-B
Thu 00:07:51 40.7929 -72.3759 74° East 466 536 19,000 87 Climbing FlightAware ADS-B
Thu 00:08:30 40.8142 -72.2689 75° East 465 535 19,000 235 Level FlightAware ADS-B
Thu 00:08:42 40.8158 -72.2352 86° East 464 534 19,200 1,532 Climbing FlightAware ADS-B
Thu 00:09:17 40.8120 -72.1420 93° East 466 536 20,200 1,731 Climbing FlightAware ADS-B
Thu 00:09:34 40.8097 -72.0873 93° East 470 541 20,700 1,137 Climbing FlightAware ADS-B
Thu 00:10:52 40.8000 -71.8750 93° East 479 551 22,000 1,475 Climbing FlightAware ADS-B
Thu 00:11:32 40.8220 -71.7510 77° East 493 567 23,600 1,453 Climbing FlightAware ADS-B
Thu 00:12:27 40.8730 -71.6090 65° Northeast 496 571 24,300 442 Climbing FlightAware ADS-B
Thu 00:13:07 40.9050 -71.5160 65° Northeast 496 571 24,300  Level FlightAware ADS-B
Thu 00:13:57 40.9470 -71.3990 65° Northeast 496 571 24,300 2,175 Level FlightAware ADS-B
Thu 00:14:27 40.9880 -71.2860 64° Northeast 511 588 27,200 2,779 Climbing FlightAware ADS-B
Thu 00:15:32 41.0570 -71.0890 65° Northeast 511 588 28,700 1,350 Climbing FlightAware ADS-B
Thu 00:16:27 41.1080 -70.9420 65° Northeast 506 582 29,900 1,260 Climbing FlightAware ADS-B
Thu 00:17:12 41.1520 -70.8120 66° East 504 580 30,800 825 Climbing FlightAware ADS-B
Thu 00:17:47 41.1840 -70.7220 65° Northeast 504 580 31,000 150 Climbing FlightAware ADS-B
Thu 00:18:32 41.2300 -70.5870 66° East 504 580 31,000  Level FlightAware ADS-B
Thu 00:19:12 41.2680 -70.4770 65° Northeast 504 580 31,000  Level FlightAware ADS-B
Thu 00:19:52 41.3010 -70.3820 65° Northeast 504 580 31,000  Level FlightAware ADS-B
Thu 00:23:07 41.4940 -69.8030 66° East 31,000  Level FlightAware ADS-B
Thu 00:27:02 41.7160 -69.1300 66° East 31,000  Level FlightAware ADS-B
Thu 00:27:57 41.7650 -68.9760 67° East 507 583 31,000  Level FlightAware ADS-B
Thu 00:28:37 41.7960 -68.8770 67° East 507 583 31,000  Level FlightAware ADS-B
Thu 00:29:17 41.8270 -68.7790 67° East 507 583 31,000  Level FlightAware ADS-B
Thu 00:29:52 41.8770 -68.6300 66° East 508 585 31,000  Level FlightAware ADS-B
Thu 00:30:37 41.9140 -68.5120 67° East 508 585 31,000  Level FlightAware ADS-B
Thu 00:31:27 41.9610 -68.3640 67° East 510 587 31,000  Level FlightAware ADS-B
Thu 00:32:07 42.0010 -68.2370 67° East 512 589 31,000  Level FlightAware ADS-B
Thu 00:32:47 42.0340 -68.1300 67° East 512 589 31,000  Level FlightAware ADS-B
Thu 00:33:32 42.0800 -67.9860 67° East 517 595 31,000  Level FlightAware ADS-B
Thu 00:34:12 42.1180 -67.8610 68° East 517 595 31,000  Level FlightAware ADS-B
Thu 00:34:52 42.1550 -67.7450 67° East 515 593 31,000  Level FlightAware ADS-B
Thu 00:35:37 42.1960 -67.6110 68° East 519 597 31,000  Level FlightAware ADS-B
Thu 00:36:17 42.2300 -67.4970 68° East 520 598 31,000  Level FlightAware ADS-B
Thu 00:36:57 42.2640 -67.3880 67° East 520 598 31,000  Level FlightAware ADS-B
Thu 00:37:37 42.2960 -67.2870 67° East 520 598 31,000  Level FlightAware ADS-B
Thu 00:38:27 42.3360 -67.1590 67° East 520 598 31,000  Level FlightAware ADS-B
Thu 00:39:07 42.3680 -67.0580 67° East 520 598 31,000  Level FlightAware ADS-B
Thu 00:39:47 42.4000 -66.9560 67° East 520 598 31,000  Level FlightAware ADS-B
Thu 00:40:27 42.4320 -66.8540 67° East 520 598 31,000  Level FlightAware ADS-B
Thu 00:41:07 42.4640 -66.7520 67° East 520 598 31,000  Level FlightAware ADS-B
Thu 00:41:47 42.4960 -66.6490 67° East 520 598 31,000  Level FlightAware ADS-B
Thu 00:42:37 42.5360 -66.5220 67° East 520 598 31,000  Level FlightAware ADS-B
Thu 00:43:17 42.5680 -66.4200 67° East 520 598 31,000  Level FlightAware ADS-B
Thu 00:43:57 42.6400 -66.1210 72° East 516 594 31,000  Level FlightAware ADS-B
Thu 00:44:37 42.6690 -66.0180 69° East 516 594 31,000  Level FlightAware ADS-B
Thu 00:45:04 42.6833 -65.9000 69° East 510 587 31,000  Level Moncton Center
Thu 00:46:04 42.7500 -65.7000 66° East 520 598 31,000  Level Moncton Center
Thu 00:51:42 43.0470 -64.6770 66° East 521 600 31,000  Level FlightAware ADS-B
Thu 00:52:17 43.0760 -64.5690 70° East 522 601 31,000  Level FlightAware ADS-B
Thu 00:53:22 43.1310 -64.3640 70° East 522 601 31,000  Level FlightAware ADS-B
Thu 00:53:57 43.1590 -64.2670 68° East 522 601 31,000  Level FlightAware ADS-B
Thu 00:54:37 43.1880 -64.1620 69° East 522 601 31,000  Level FlightAware ADS-B
Thu 00:55:27 43.2250 -64.0300 69° East 522 601 31,000  Level FlightAware ADS-B
Thu 00:56:07 43.2540 -63.9250 69° East 522 601 31,000  Level FlightAware ADS-B
Thu 00:56:47 43.2840 -63.8200 69° East 522 601 31,000  Level FlightAware ADS-B
Thu 00:57:27 43.3130 -63.7140 69° East 522 601 31,000  Level FlightAware ADS-B
Thu 00:58:07 43.3420 -63.6090 69° East 522 601 31,000  Level FlightAware ADS-B
Thu 00:58:57 43.3790 -63.4770 69° East 522 601 31,000  Level FlightAware ADS-B
Thu 00:59:37 43.4090 -63.3720 68° East 522 601 31,000  Level FlightAware ADS-B
Thu 01:00:17 43.4380 -63.2660 69° East 522 601 31,000  Level FlightAware ADS-B
Thu 01:00:57 43.4670 -63.1610 69° East 522 601 31,000  Level FlightAware ADS-B
Thu 01:01:37 43.4970 -63.0550 69° East 522 601 31,000  Level FlightAware ADS-B
Thu 01:02:27 43.5340 -62.9230 69° East 522 601 31,000  Level FlightAware ADS-B
Thu 01:02:51 43.5833 -62.5667 69° East 530 610 31,000  Level Gander Center
Thu 01:03:51 43.6167 -62.3667 77° East 530 610 31,000  Level Gander Center
Thu 01:04:51 43.6667 -62.1833 69° East 530 610 31,000  Level Gander Center
Thu 01:05:51 43.7333 -61.9667 67° East 530 610 31,000  Level Gander Center
Thu 01:06:51 43.7833 -61.7833 69° East 530 610 31,000  Level Gander Center
Thu 01:07:51 43.8167 -61.5833 77° East 530 610 31,000  Level Gander Center
Thu 01:08:51 43.8667 -61.4000 69° East 530 610 31,000  Level Gander Center
Thu 01:09:51 43.9167 -61.2167 69° East 530 610 31,000  Level Gander Center
Thu 01:10:51 43.9667 -61.0333 69° East 530 610 31,000  Level Gander Center
Thu 01:15:57 44.1970 -60.0380 69° East 537 618 31,000  Level FlightAware ADS-B
Thu 01:16:42 44.2310 -59.8860 73° East 538 619 31,000  Level FlightAware ADS-B
Thu 01:17:22 44.2580 -59.7630 73° East 539 620 31,000  Level FlightAware ADS-B
Thu 01:18:02 44.2880 -59.6270 73° East 540 621 31,000  Level FlightAware ADS-B
Thu 01:18:47 44.3210 -59.4770 73° East 540 621 31,000  Level FlightAware ADS-B
Thu 01:19:27 44.3490 -59.3470 73° East 540 621 31,000  Level FlightAware ADS-B
Thu 01:20:12 44.3820 -59.1930 73° East 542 624 31,000  Level FlightAware ADS-B
Thu 01:20:52 44.4110 -59.0590 73° East 542 624 31,000  Level FlightAware ADS-B
Thu 01:21:37 44.4430 -58.9040 74° East 542 624 31,000  Level FlightAware ADS-B
Thu 01:22:17 44.4710 -58.7730 73° East 542 624 31,000  Level FlightAware ADS-B
Thu 01:22:57 44.4990 -58.6380 74° East 541 623 31,000  Level FlightAware ADS-B
Thu 01:23:42 44.5310 -58.4840 74° East 540 621 31,000  Level FlightAware ADS-B
Thu 01:24:27 44.5610 -58.3390 74° East 539 620 31,000  Level FlightAware ADS-B
Thu 01:25:02 44.5870 -58.2120 74° East 540 621 31,000  Level FlightAware ADS-B
Thu 01:25:47 44.6170 -58.0640 74° East 540 621 31,000  Level FlightAware ADS-B
Thu 01:26:32 44.6470 -57.9150 74° East 541 623 31,000  Level FlightAware ADS-B
Thu 01:27:07 44.6710 -57.7970 74° East 541 623 31,000 375 Level FlightAware ADS-B
Thu 01:27:52 44.7020 -57.6410 74° East 541 623 31,500 720 Climbing FlightAware ADS-B
Thu 01:28:47 44.7370 -57.4680 74° East 540 621 32,200 900 Climbing FlightAware ADS-B
Thu 01:29:32 44.7690 -57.3050 74° East 535 616 33,000 565 Climbing FlightAware ADS-B
Thu 01:30:12 44.7920 -57.1880 74° East 535 616 33,000  Level FlightAware ADS-B
Thu 01:30:57 44.8230 -57.0230 75° East 533 613 33,000  Level FlightAware ADS-B
Thu 01:31:37 44.8490 -56.8890 75° East 533 613 33,000  Level FlightAware ADS-B
Thu 01:32:22 44.8790 -56.7320 75° East 532 612 33,000  Level FlightAware ADS-B
Thu 01:33:02 44.9050 -56.6020 74° East 530 610 33,000  Level FlightAware ADS-B
Thu 01:33:42 44.9290 -56.4830 74° East 531 611 33,000  Level FlightAware ADS-B
Thu 01:34:22 44.9520 -56.3690 74° East 531 611 33,000  Level FlightAware ADS-B
Thu 01:35:02 44.9750 -56.2560 74° East 531 611 33,000  Level FlightAware ADS-B
Thu 01:35:52 45.0040 -56.1140 74° East 531 611 33,000  Level FlightAware ADS-B
Thu 01:36:32 45.0270 -56.0000 74° East 531 611 33,000  Level FlightAware ADS-B
Thu 01:37:12 45.0500 -55.8870 74° East 531 611 33,000  Level FlightAware ADS-B
Thu 01:37:52 45.0730 -55.7730 74° East 531 611 33,000  Level FlightAware ADS-B
Thu 01:38:32 45.0960 -55.6590 74° East 531 611 33,000  Level FlightAware ADS-B
Thu 01:39:22 45.1250 -55.5170 74° East 531 611 33,000  Level FlightAware ADS-B
Thu 01:40:02 45.1480 -55.4030 74° East 531 611 33,000  Level FlightAware ADS-B
Thu 01:40:42 45.1710 -55.2890 74° East 531 611 33,000  Level FlightAware ADS-B
Thu 01:41:22 45.1940 -55.1750 74° East 531 611 33,000  Level FlightAware ADS-B
Thu 01:42:02 45.2170 -55.0620 74° East 531 611 33,000  Level FlightAware ADS-B
Thu 01:42:52 45.2460 -54.9190 74° East 531 611 33,000  Level FlightAware ADS-B
Thu 01:43:32 45.3030 -54.4800 79° East 536 617 33,000  Level FlightAware ADS-B
Thu 01:44:12 45.3280 -54.3440 75° East 536 617 33,000  Level FlightAware ADS-B
Thu 01:44:52 45.3510 -54.2100 76° East 537 618 33,000  Level FlightAware ADS-B
Thu 01:45:37 45.3760 -54.0700 76° East 537 618 33,000  Level FlightAware ADS-B
Thu 01:46:17 45.3960 -53.9540 76° East 537 618 33,000  Level FlightAware ADS-B
Thu 01:46:57 45.4170 -53.8370 76° East 537 618 33,000  Level FlightAware ADS-B
Thu 01:47:47 45.4420 -53.6910 76° East 537 618 33,000  Level FlightAware ADS-B
Thu 01:48:27 45.4630 -53.5740 76° East 537 618 33,000  Level FlightAware ADS-B
Thu 01:49:07 45.4830 -53.4570 76° East 537 618 33,000  Level FlightAware ADS-B
Thu 01:49:47 45.5030 -53.3400 76° East 537 618 33,000  Level FlightAware ADS-B
Thu 01:50:27 45.5240 -53.2230 76° East 537 618 33,000  Level FlightAware ADS-B
Thu 01:51:17 45.5490 -53.0770 76° East 537 618 33,000  Level FlightAware ADS-B
Thu 01:51:57 45.5700 -52.9600 76° East 537 618 33,000  Level FlightAware ADS-B
Thu 01:52:37 45.5900 -52.8430 76° East 537 618 33,000  Level FlightAware ADS-B
Thu 01:53:17 45.6110 -52.7260 76° East 537 618 33,000  Level FlightAware ADS-B
Thu 01:53:57 45.6310 -52.6090 76° East 537 618 33,000  Level FlightAware ADS-B
Thu 01:54:47 45.6570 -52.4620 76° East 537 618 33,000  Level FlightAware ADS-B
Thu 01:55:04 45.6833 -52.0667 76° East 530 610 33,000  Level Moncton Center
Thu 01:55:51 45.7000 -51.9000 82° East 530 610 33,000  Level Gander Center
Thu 01:56:51 45.7333 -51.7000 77° East 540 621 33,000  Level Gander Center
Thu 01:57:51 45.7667 -51.4833 77° East 530 610 33,000  Level Gander Center
Thu 01:58:51 45.7833 -51.2833 83° East 540 621 33,000  Level Gander Center
Thu 01:59:51 45.8333 -51.0667 72° East 540 621 33,000  Level Gander Center
Thu 02:00:51 45.8667 -50.8667 76° East 530 610 33,000  Level Gander Center
Thu 02:01:51 45.8833 -50.6500 84° East 540 621 33,000  Level Gander Center
Thu 02:02:51 45.9000 -50.4500 83° East 540 621 33,000  Level Gander Center
Thu 02:03:51 45.9333 -50.2167 78° East 530 610 33,000  Level Gander Center
Thu 02:04:51 45.9667 -50.0167 76° East 540 621 33,000  Level Gander Center
Thu 02:05:51 46.0167 -49.8167 70° East 530 610 33,000  Level Gander Center
Thu 02:06:51 46.0500 -49.6167 76° East 530 610 33,000  Level Gander Center
Thu 02:07:00 46.0000 -50.0000 70° East 543 625 33,000  Level ETMS Enhanced Traffic Management System
Thu 02:07:51 46.1000 -49.4333 70° East 520 598 33,000  Level Gander Center
Thu 02:08:51 46.1667 -49.2333 64° Northeast 550 633 33,000  Level Gander Center
Thu 02:09:51 46.2167 -49.0167 71° East 530 610 33,000  Level Gander Center
Thu 02:10:51 46.2500 -48.8167 76° East 530 610 33,000  Level Gander Center
Thu 02:11:51 46.3000 -48.6167 70° East 530 610 33,000  Level Gander Center
Thu 02:12:51 46.3500 -48.4333 68° East 540 621 33,000  Level Gander Center
Thu 02:13:51 46.4000 -48.2000 73° East 540 621 33,000  Level Gander Center
Thu 02:14:51 46.4500 -48.0167 68° East 550 633 33,000  Level Gander Center
Thu 02:15:57 46.5000 -47.7833 73° East 540 621 33,000  Level Gander Center
Thu 02:16:51 46.5500 -47.6000 68° East 540 621 33,000  Level Gander Center
Thu 02:18:04 46.6000 -47.3333 75° East 560 644 33,000  Level Gander Center
Thu 02:19:04 46.6500 -47.1333 70° East 550 633 33,000  Level Gander Center
Thu 02:20:47 46.7167 -46.7667 75° East 520 598 33,000  Level Gander Center
Thu 02:22:00 46.7714 -46.5210 72° East  Level FlightAware Approximate
Thu 02:29:00 47.0763 -45.0982 72° East  Level FlightAware Approximate
Thu 02:30:00 47.1184 -44.8936 73° East  Level FlightAware Approximate
Thu 02:31:00 47.1601 -44.6887 73° East  Level FlightAware Approximate
Thu 02:32:00 47.2015 -44.4835 73° East  Level FlightAware Approximate
Thu 02:33:00 47.2425 -44.2779 74° East  Level FlightAware Approximate
Thu 02:34:00 47.2831 -44.0721 74° East  Level FlightAware Approximate
Thu 02:35:00 47.3234 -43.8659 74° East  Level FlightAware Approximate
Thu 02:36:00 47.3633 -43.6594 74° East  Level FlightAware Approximate
Thu 02:37:00 47.4028 -43.4526 74° East  Level FlightAware Approximate
Thu 02:38:00 47.4419 -43.2455 74° East  Level FlightAware Approximate
Thu 02:39:00 47.4807 -43.0381 74° East  Level FlightAware Approximate
Thu 02:40:00 47.5191 -42.8304 75° East  Level FlightAware Approximate
Thu 02:41:00 47.5572 -42.6224 75° East  Level FlightAware Approximate
Thu 02:42:00 47.5948 -42.4141 75° East  Level FlightAware Approximate
Thu 02:43:00 47.6321 -42.2054 75° East  Level FlightAware Approximate
Thu 02:44:00 47.6690 -41.9965 75° East  Level FlightAware Approximate
Thu 02:45:00 47.7055 -41.7873 75° East  Level FlightAware Approximate
Thu 02:46:00 47.7416 -41.5778 76° East  Level FlightAware Approximate
Thu 02:47:00 47.7774 -41.3680 76° East  Level FlightAware Approximate
Thu 02:48:00 47.8127 -41.1580 76° East  Level FlightAware Approximate
Thu 02:49:00 47.8477 -40.9476 76° East  Level FlightAware Approximate
Thu 02:50:00 47.8823 -40.7370 76° East  Level FlightAware Approximate
Thu 02:51:00 47.9165 -40.5260 76° East  Level FlightAware Approximate
Thu 02:52:00 47.9504 -40.3148 76° East  Level FlightAware Approximate
Thu 02:52:00 48.0000 -40.0000 78° East 535 616 33,000  Level ETMS Enhanced Traffic Management System
Thu 02:53:00 47.9838 -40.1034 77° East  Level FlightAware Approximate
Thu 02:54:00 48.0158 -39.8911 78° East  Level FlightAware Approximate
Thu 02:55:00 48.0465 -39.6784 78° East  Level FlightAware Approximate
Thu 02:56:00 48.0757 -39.4727 78° East  Level FlightAware Approximate
Thu 02:57:00 48.1045 -39.2667 78° East  Level FlightAware Approximate
Thu 02:58:00 48.2120 -38.4727 79° East 535 616 33,000  Level FlightAware Transoceanic
Thu 02:59:00 48.2406 -38.2535 79° East 535 616 33,000  Level FlightAware Transoceanic
Thu 03:00:00 48.2688 -38.0341 79° East 535 616 33,000  Level FlightAware Transoceanic
Thu 03:01:00 48.2966 -37.8144 79° East 535 616 33,000  Level FlightAware Transoceanic
Thu 03:02:00 48.3240 -37.5945 79° East 535 616 33,000  Level FlightAware Transoceanic
Thu 03:03:00 48.3509 -37.3744 80° East 535 616 33,000  Level FlightAware Transoceanic
Thu 03:04:00 48.3774 -37.1540 80° East 535 616 33,000  Level FlightAware Transoceanic
Thu 03:05:00 48.4036 -36.9334 80° East 535 616 33,000  Level FlightAware Transoceanic
Thu 03:06:00 48.4292 -36.7125 80° East 535 616 33,000  Level FlightAware Transoceanic
Thu 03:07:00 48.4545 -36.4915 80° East 535 616 33,000  Level FlightAware Transoceanic
Thu 03:08:00 48.4794 -36.2702 80° East 535 616 33,000  Level FlightAware Transoceanic
Thu 03:09:00 48.5038 -36.0487 81° East 535 616 33,000  Level FlightAware Transoceanic
Thu 03:10:00 48.5278 -35.8270 81° East 535 616 33,000  Level FlightAware Transoceanic
Thu 03:11:00 48.5513 -35.6051 81° East 535 616 33,000  Level FlightAware Transoceanic
Thu 03:12:00 48.5745 -35.3830 81° East 535 616 33,000  Level FlightAware Transoceanic
Thu 03:13:00 48.5972 -35.1607 81° East 535 616 33,000  Level FlightAware Transoceanic
Thu 03:14:00 48.6195 -34.9382 81° East 535 616 33,000  Level FlightAware Transoceanic
Thu 03:15:00 48.6413 -34.7155 82° East 535 616 33,000  Level FlightAware Transoceanic
Thu 03:16:00 48.6627 -34.4926 82° East 535 616 33,000  Level FlightAware Transoceanic
Thu 03:17:00 48.6837 -34.2695 82° East 535 616 33,000  Level FlightAware Transoceanic
Thu 03:18:00 48.7043 -34.0462 82° East 535 616 33,000  Level FlightAware Transoceanic
Thu 03:19:00 48.7244 -33.8228 82° East 535 616 33,000  Level FlightAware Transoceanic
Thu 03:20:00 48.7441 -33.5991 82° East 535 616 33,000  Level FlightAware Transoceanic
Thu 03:21:00 48.7634 -33.3753 83° East 535 616 33,000  Level FlightAware Transoceanic
Thu 03:22:00 48.7822 -33.1513 83° East 535 616 33,000  Level FlightAware Transoceanic
Thu 03:23:00 48.8006 -32.9272 83° East 535 616 33,000  Level FlightAware Transoceanic
Thu 03:24:00 48.8186 -32.7029 83° East 535 616 33,000  Level FlightAware Transoceanic
Thu 03:25:00 48.8361 -32.4785 83° East 535 616 33,000  Level FlightAware Transoceanic
Thu 03:26:00 48.8532 -32.2538 83° East 535 616 33,000  Level FlightAware Transoceanic
Thu 03:27:00 48.8699 -32.0291 84° East 535 616 33,000  Level FlightAware Transoceanic
Thu 03:28:00 48.8861 -31.8042 84° East 535 616 33,000  Level FlightAware Transoceanic
Thu 03:29:00 48.9018 -31.5791 84° East 535 616 33,000  Level FlightAware Transoceanic
Thu 03:30:00 48.9172 -31.3539 84° East 535 616 33,000  Level FlightAware Transoceanic
Thu 03:31:00 48.9321 -31.1286 84° East 535 616 33,000  Level FlightAware Transoceanic
Thu 03:32:00 48.9465 -30.9031 85° East 535 616 33,000  Level FlightAware Transoceanic
Thu 03:33:00 48.9606 -30.6775 85° East 535 616 33,000  Level FlightAware Transoceanic
Thu 03:34:00 48.9742 -30.4518 85° East 535 616 33,000  Level FlightAware Transoceanic
Thu 03:35:00 48.9873 -30.2260 85° East 535 616 33,000  Level FlightAware Transoceanic
Thu 03:36:00 48.9993 -30.0125 85° East  Level FlightAware Approximate
Thu 03:37:00 49.0109 -29.7989 85° East  Level FlightAware Approximate
Thu 03:38:00 49.0268 -29.8151 77° East  Level FlightAware Approximate
Thu 03:39:00 49.0568 -29.6056 78° East  Level FlightAware Approximate
Thu 03:40:00 49.0864 -29.3958 78° East  Level FlightAware Approximate
Thu 03:40:00 49.0000 -30.0000 77° East 502 578 33,000  Level ETMS Enhanced Traffic Management System
Thu 03:41:00 49.1157 -29.1857 78° East  Level FlightAware Approximate
Thu 03:42:00 49.1446 -28.9751 78° East  Level FlightAware Approximate
Thu 03:43:00 49.1731 -28.7642 78° East  Level FlightAware Approximate
Thu 03:44:00 49.2012 -28.5531 78° East  Level FlightAware Approximate
Thu 03:45:00 49.2290 -28.3417 79° East  Level FlightAware Approximate
Thu 03:46:00 49.2563 -28.1301 79° East  Level FlightAware Approximate
Thu 03:47:00 49.2845 -27.9092 79° East 502 578 33,000  Level FlightAware Transoceanic
Thu 03:48:00 49.3108 -27.6988 79° East 502 578 33,000  Level FlightAware Transoceanic
Thu 03:49:00 49.3368 -27.4882 79° East 502 578 33,000  Level FlightAware Transoceanic
Thu 03:50:00 49.3624 -27.2774 80° East 502 578 33,000  Level FlightAware Transoceanic
Thu 03:51:00 49.3876 -27.0664 80° East 502 578 33,000  Level FlightAware Transoceanic
Thu 03:52:00 49.4124 -26.8551 80° East 502 578 33,000  Level FlightAware Transoceanic
Thu 03:53:00 49.4369 -26.6437 80° East 502 578 33,000  Level FlightAware Transoceanic
Thu 03:54:00 49.4609 -26.4320 80° East 502 578 33,000  Level FlightAware Transoceanic
Thu 03:55:00 49.4846 -26.2201 80° East 502 578 33,000  Level FlightAware Transoceanic
Thu 03:56:00 49.5079 -26.0080 80° East 502 578 33,000  Level FlightAware Transoceanic
Thu 03:57:00 49.5308 -25.7957 81° East 502 578 33,000  Level FlightAware Transoceanic
Thu 03:58:00 49.5533 -25.5833 81° East 502 578 33,000  Level FlightAware Transoceanic
Thu 03:59:00 49.5754 -25.3706 81° East 502 578 33,000  Level FlightAware Transoceanic
Thu 04:00:00 49.5971 -25.1577 81° East 502 578 33,000  Level FlightAware Transoceanic
Thu 04:01:00 49.6185 -24.9447 81° East 502 578 33,000  Level FlightAware Transoceanic
Thu 04:02:00 49.6394 -24.7314 81° East 502 578 33,000  Level FlightAware Transoceanic
Thu 04:03:00 49.6600 -24.5180 82° East 502 578 33,000  Level FlightAware Transoceanic
Thu 04:04:00 49.6801 -24.3044 82° East 502 578 33,000  Level FlightAware Transoceanic
Thu 04:05:00 49.6999 -24.0907 82° East 502 578 33,000  Level FlightAware Transoceanic
Thu 04:06:00 49.7192 -23.8767 82° East 502 578 33,000  Level FlightAware Transoceanic
Thu 04:07:00 49.7382 -23.6626 82° East 502 578 33,000  Level FlightAware Transoceanic
Thu 04:08:00 49.7568 -23.4483 82° East 502 578 33,000  Level FlightAware Transoceanic
Thu 04:09:00 49.7750 -23.2339 83° East 502 578 33,000  Level FlightAware Transoceanic
Thu 04:10:00 49.7928 -23.0193 83° East 502 578 33,000  Level FlightAware Transoceanic
Thu 04:11:00 49.8102 -22.8045 83° East 502 578 33,000  Level FlightAware Transoceanic
Thu 04:12:00 49.8272 -22.5896 83° East 502 578 33,000  Level FlightAware Transoceanic
Thu 04:13:00 49.8438 -22.3745 83° East 502 578 33,000  Level FlightAware Transoceanic
Thu 04:14:00 49.8600 -22.1593 83° East 502 578 33,000  Level FlightAware Transoceanic
Thu 04:15:00 49.8758 -21.9440 84° East 502 578 33,000  Level FlightAware Transoceanic
Thu 04:16:00 49.8912 -21.7285 84° East 502 578 33,000  Level FlightAware Transoceanic
Thu 04:17:00 49.9062 -21.5129 84° East 502 578 33,000  Level FlightAware Transoceanic
Thu 04:18:00 49.9208 -21.2971 84° East 502 578 33,000  Level FlightAware Transoceanic
Thu 04:19:00 49.9350 -21.0812 84° East 502 578 33,000  Level FlightAware Transoceanic
Thu 04:20:00 49.9488 -20.8652 84° East 502 578 33,000  Level FlightAware Transoceanic
Thu 04:21:00 49.9622 -20.6491 85° East 502 578 33,000  Level FlightAware Transoceanic
Thu 04:22:00 49.9752 -20.4328 85° East 502 578 33,000  Level FlightAware Transoceanic
Thu 04:23:00 49.9878 -20.2165 85° East 502 578 33,000  Level FlightAware Transoceanic
Thu 04:24:00 50.0004 -19.9933 85° East  Level FlightAware Approximate
Thu 04:25:00 49.9996 -19.9865 93° East  Level FlightAware Approximate
Thu 04:26:00 49.9924 -19.7627 93° East  Level FlightAware Approximate
Thu 04:27:00 49.9849 -19.5390 93° East  Level FlightAware Approximate
Thu 04:28:00 49.9768 -19.3154 93° East  Level FlightAware Approximate
Thu 04:29:00 49.9684 -19.0918 93° East  Level FlightAware Approximate
Thu 04:30:00 49.9595 -18.8683 93° East  Level FlightAware Approximate
Thu 04:31:00 49.9502 -18.6449 94° East  Level FlightAware Approximate
Thu 04:32:00 49.9405 -18.4216 94° East  Level FlightAware Approximate
Thu 04:33:00 49.9303 -18.1984 94° East  Level FlightAware Approximate
Thu 04:34:00 49.9198 -17.9753 94° East  Level FlightAware Approximate
Thu 04:35:00 49.9087 -17.7523 94° East  Level FlightAware Approximate
Thu 04:36:00 49.8973 -17.5293 94° East  Level FlightAware Approximate
Thu 04:37:00 49.8854 -17.3065 95° East  Level FlightAware Approximate
Thu 04:38:00 49.8731 -17.0838 95° East  Level FlightAware Approximate
Thu 04:39:00 49.8604 -16.8612 95° East  Level FlightAware Approximate
Thu 04:40:00 49.8473 -16.6388 95° East  Level FlightAware Approximate
Thu 04:41:00 49.8337 -16.4164 95° East  Level FlightAware Approximate
Thu 04:42:00 49.8197 -16.1942 95° East  Level FlightAware Approximate
Thu 04:43:00 49.8053 -15.9721 96° East  Level FlightAware Approximate
Thu 04:44:00 49.7905 -15.7502 96° East  Level FlightAware Approximate
Thu 04:45:00 49.7752 -15.5283 96° East  Level FlightAware Approximate
Thu 04:46:00 49.7595 -15.3067 96° East  Level FlightAware Approximate
Thu 04:47:00 49.7434 -15.0851 96° East  Level FlightAware Approximate
Thu 04:48:00 49.7268 -14.8638 97° East  Level FlightAware Approximate
Thu 04:49:00 49.7099 -14.6425 97° East  Level FlightAware Approximate
Thu 04:50:00 49.6925 -14.4215 97° East  Level FlightAware Approximate
Thu 04:51:00 49.6753 -14.2073 97° East  Level FlightAware Approximate
Thu 04:52:00 49.6576 -13.9932 97° East  Level FlightAware Approximate
Thu 04:53:00 49.6396 -13.7794 97° East  Level FlightAware Approximate
Thu 04:54:00 49.6211 -13.5656 98° East  Level FlightAware Approximate
Thu 04:55:00 49.6023 -13.3521 98° East  Level FlightAware Approximate
Thu 04:56:00 49.5831 -13.1387 98° East  Level FlightAware Approximate
Thu 04:57:00 49.5635 -12.9255 98° East  Level FlightAware Approximate
Thu 04:58:00 49.5435 -12.7124 98° East  Level FlightAware Approximate
Thu 04:59:00 49.5231 -12.4995 98° East  Level FlightAware Approximate
Thu 05:00:00 49.5013 -12.2871 99° East  Level FlightAware Approximate
Thu 05:01:00 49.4787 -12.0749 99° East  Level FlightAware Approximate
Thu 05:02:00 49.4557 -11.8630 99° East  Level FlightAware Approximate
Thu 05:03:00 49.4323 -11.6512 100° East  Level FlightAware Approximate
Thu 05:04:00 49.4086 -11.4397 100° East  Level FlightAware Approximate
Thu 05:05:00 49.3844 -11.2283 100° East  Level FlightAware Approximate
Thu 05:06:00 49.3599 -11.0172 100° East  Level FlightAware Approximate
Thu 05:07:00 49.3364 -10.8059 99° East  Level FlightAware Approximate
Thu 05:08:00 49.3136 -10.5945 99° East  Level FlightAware Approximate
Thu 05:09:00 49.2904 -10.3833 99° East  Level FlightAware Approximate
Thu 05:10:00 49.2668 -10.1723 100° East  Level FlightAware Approximate
Thu 05:11:00 49.2428 -9.9615 100° East  Level FlightAware Approximate
Thu 05:12:00 49.2184 -9.7509 100° East  Level FlightAware Approximate
Thu 05:13:00 49.1937 -9.5406 100° East  Level FlightAware Approximate
Thu 05:13:33 49.2800 -9.2780 100° East 520 598 33,000  Level FlightAware ADS-B
Thu 05:13:58 49.2670 -9.1900 103° East 520 598 33,000  Level FlightAware ADS-B
Thu 05:14:00 49.1686 -9.3304 100° East  Level FlightAware Approximate
Thu 05:14:38 49.2480 -9.0680 103° East 520 598 33,000  Level FlightAware ADS-B
Thu 05:14:57 49.2269 -8.9551 103° East 490 564 31,500 -2,432 Descending FlightAware UK
Thu 05:15:15 49.2166 -8.8910 104° East 490 564 31,500 2,903 Level FlightAware UK
Thu 05:15:28 49.2250 -8.9150 104° East 520 598 33,000  Climbing FlightAware ADS-B
Thu 05:15:45 49.1989 -8.7835 104° East 492 566 31,500 -2,571 Descending FlightAware UK
Thu 05:16:03 49.1881 -8.7191 104° East 490 564 31,500 3,913 Level FlightAware UK
Thu 05:16:08 49.1880 -8.7180 104° East 523 602 33,000  Climbing FlightAware ADS-B
Thu 05:16:27 49.1739 -8.6331 104° East 490 564 31,500 -2,432 Descending FlightAware UK
Thu 05:16:45 49.1632 -8.5686 104° East 488 562 31,500 4,286 Level FlightAware UK
Thu 05:16:48 49.1640 -8.5740 104° East 523 602 33,000  Climbing FlightAware ADS-B
Thu 05:17:03 49.1523 -8.5043 104° East 490 564 31,500 -2,727 Descending FlightAware UK
Thu 05:17:21 49.1414 -8.4399 105° East 488 562 31,500 3,000 Level FlightAware UK
Thu 05:17:33 49.1360 -8.4100 105° East 525 604 33,000  Climbing FlightAware ADS-B
Thu 05:17:51 49.1230 -8.3326 105° East 490 564 31,500 -2,500 Descending FlightAware UK
Thu 05:18:09 49.1120 -8.2681 105° East 490 564 31,500 4,091 Level FlightAware UK
Thu 05:18:13 49.1120 -8.2660 105° East 526 605 33,000  Climbing FlightAware ADS-B
Thu 05:18:33 49.0972 -8.1821 105° East 490 564 31,500  Descending FlightAware UK
Thu 05:18:43 49.0940 -8.1620 105° East 526 605 33,000  Climbing FlightAware ADS-B
Thu 05:19:03 49.0789 -8.0744 105° East 490 564 31,500 -2,368 Descending FlightAware UK
Thu 05:19:21 49.0676 -8.0098 105° East 490 564 31,500 4,500 Level FlightAware UK
Thu 05:19:23 49.0680 -8.0120 105° East 527 606 33,000  Climbing FlightAware ADS-B
Thu 05:19:39 49.0561 -7.9445 105° East 490 564 31,500 -2,647 Descending FlightAware UK
Thu 05:19:57 49.0448 -7.8799 105° East 490 564 31,500 3,103 Level FlightAware UK
Thu 05:20:08 49.0410 -7.8610 105° East 528 608 33,000  Climbing FlightAware ADS-B
Thu 05:20:27 49.0257 -7.7722 105° East 488 562 31,500 -2,432 Descending FlightAware UK
Thu 05:20:45 49.0144 -7.7075 105° East 488 562 31,500 4,286 Level FlightAware UK
Thu 05:20:48 49.0140 -7.7030 105° East 528 608 33,000  Climbing FlightAware ADS-B
Thu 05:21:03 49.0044 -7.6423 105° East 488 562 31,500 -2,727 Descending FlightAware UK
Thu 05:21:21 49.0016 -7.5752 94° East 490 564 31,500 3,600 Level FlightAware UK
Thu 05:21:28 49.0010 -7.5610 94° East 520 598 33,000  Climbing FlightAware ADS-B
Thu 05:21:45 48.9980 -7.4882 94° East 488 562 31,500 -2,571 Descending FlightAware UK
Thu 05:22:03 48.9991 -7.4235 89° East 490 564 31,500 3,214 Level FlightAware UK
Thu 05:22:13 49.0010 -7.4050 89° East 514 592 33,000  Climbing FlightAware ADS-B
Thu 05:22:33 49.0008 -7.3154 89° East 490 564 31,500 -2,368 Descending FlightAware UK
Thu 05:22:51 49.0013 -7.2504 89° East 492 566 31,500 4,500 Level FlightAware UK
Thu 05:22:53 49.0020 -7.2570 89° East 514 592 33,000  Climbing FlightAware ADS-B
Thu 05:23:09 49.0018 -7.1854 89° East 496 571 31,500 -2,647 Descending FlightAware UK
Thu 05:23:27 49.0024 -7.1205 89° East 494 568 31,500 3,103 Level FlightAware UK
Thu 05:23:38 49.0030 -7.0910 89° East 511 588 33,000  Climbing FlightAware ADS-B
Thu 05:23:57 49.0032 -7.0126 89° East 492 566 31,500  Descending FlightAware UK
Thu 05:24:18 49.0040 -6.9440 89° East 510 587 33,000  Climbing FlightAware ADS-B
Thu 05:24:34 49.0038 -6.8827 89° East 492 566 31,500 -2,647 Descending FlightAware UK
Thu 05:24:52 49.0040 -6.8183 90° East 490 564 31,500 3,750 Level FlightAware UK
Thu 05:24:58 49.0040 -6.8080 90° East 510 587 33,000  Climbing FlightAware ADS-B
Thu 05:25:16 49.0043 -6.7323 90° East 490 564 31,500  Descending FlightAware UK
Thu 05:25:33 49.0050 -6.6800 90° East 509 586 33,000  Climbing FlightAware ADS-B
Thu 05:25:34 49.0045 -6.6679 90° East 490 564 31,500 -4,737 Descending FlightAware UK
Thu 05:25:52 49.0048 -6.6036 90° East 490 564 31,500  Level FlightAware UK
Thu 05:26:10 49.0051 -6.5392 90° East 488 562 31,500 2,903 Level FlightAware UK
Thu 05:26:23 49.0050 -6.5040 90° East 510 587 33,000  Climbing FlightAware ADS-B
Thu 05:26:40 49.0052 -6.4319 90° East 490 564 31,500  Descending FlightAware UK
Thu 05:27:03 49.0050 -6.3790 90° East 510 587 33,000  Climbing FlightAware ADS-B
Thu 05:27:28 49.0052 -6.2601 90° East 486 559 31,500  Descending FlightAware UK
Thu 05:27:48 49.0050 -6.2320 90° East 512 589 33,000  Climbing FlightAware ADS-B
Thu 05:28:10 49.0050 -6.1094 90° East 488 562 31,500  Descending FlightAware UK
Thu 05:28:33 49.0050 -6.0480 90° East 514 592 33,000  Climbing FlightAware ADS-B
Thu 05:28:52 48.9969 -5.9572 90° East 488 562 31,500  Descending FlightAware UK
Thu 05:29:13 48.9890 -5.9160 90° East 538 619 33,000  Climbing FlightAware ADS-B
Thu 05:29:28 48.9636 -5.8275 90° East 488 562 31,500 -2,727 Descending FlightAware UK
Thu 05:29:46 48.9375 -5.7677 124° Southeast 488 562 31,500  Level FlightAware UK
Thu 05:30:04 48.9115 -5.7080 124° Southeast 488 562 31,500 4,091 Level FlightAware UK
Thu 05:30:08 48.9240 -5.7380 124° Southeast 563 648 33,000  Climbing FlightAware ADS-B
Thu 05:30:28 48.8765 -5.6286 124° Southeast 488 562 31,500 -2,368 Descending FlightAware UK
Thu 05:30:46 48.8500 -5.5695 124° Southeast 488 562 31,500 4,500 Level FlightAware UK
Thu 05:30:48 48.8500 -5.5710 124° Southeast 568 654 33,000 1,915 Climbing FlightAware ADS-B
Thu 05:31:33 48.7840 -5.4260 125° Southeast 571 657 33,000 -1,184 Level FlightAware ADS-B
Thu 05:32:04 48.7332 -5.3134 125° Southeast 488 562 31,500  Descending FlightAware UK
Thu 05:32:13 48.7230 -5.2910 125° Southeast 573 659 33,000  Climbing FlightAware ADS-B
Thu 05:32:28 48.6968 -5.2337 125° Southeast 488 562 31,500 -2,308 Descending FlightAware UK
Thu 05:32:52 48.6608 -5.1549 125° Southeast 488 562 31,500 3,600 Level FlightAware UK
Thu 05:32:53 48.6630 -5.1620 125° Southeast 575 662 33,000  Climbing FlightAware ADS-B
Thu 05:33:16 48.6247 -5.0765 125° Southeast 490 564 31,500  Descending FlightAware UK
Thu 05:33:38 48.5940 -5.0100 125° Southeast 576 663 33,000  Climbing FlightAware ADS-B
Thu 05:34:10 48.5429 -4.9005 125° Southeast 492 566 31,500  Descending FlightAware UK
Thu 05:34:18 48.5330 -4.8780 125° Southeast 576 663 33,000  Climbing FlightAware ADS-B
Thu 05:34:40 48.4973 -4.8027 125° Southeast 492 566 31,500 -2,250 Descending FlightAware UK
Thu 05:34:58 48.4700 -4.7439 125° Southeast 492 566 31,500 3,913 Level FlightAware UK
Thu 05:35:03 48.4660 -4.7330 125° Southeast 575 662 33,000  Climbing FlightAware ADS-B
Thu 05:35:28 48.4244 -4.6460 125° Southeast 492 566 31,500  Descending FlightAware UK
Thu 05:35:43 48.4030 -4.5960 125° Southeast 575 662 33,000  Climbing FlightAware ADS-B
Thu 05:36:22 48.3416 -4.4694 125° Southeast 490 564 31,500  Descending FlightAware UK
Thu 05:36:28 48.3360 -4.4520 125° Southeast 575 662 33,000  Climbing FlightAware ADS-B
Thu 05:36:58 48.2860 -4.3511 125° Southeast 492 566 31,500  Descending FlightAware UK
Thu 05:37:08 48.2740 -4.3220 125° Southeast 575 662 33,000 1,800 Climbing FlightAware ADS-B
Thu 05:37:48 48.2140 -4.1950 125° Southeast 575 662 33,000  Level FlightAware ADS-B
Thu 05:38:33 48.1430 -4.0460 125° Southeast 574 661 33,000  Level FlightAware ADS-B
Thu 05:39:13 48.0810 -3.9130 125° Southeast 574 661 33,000  Level FlightAware ADS-B
Thu 05:39:53 48.0190 -3.7870 126° Southeast 574 661 33,000  Level FlightAware ADS-B
Thu 05:40:38 47.9500 -3.6430 126° Southeast 573 659 33,000  Level FlightAware ADS-B
Thu 05:41:18 47.8890 -3.5180 126° Southeast 573 659 33,000  Level FlightAware ADS-B
Thu 05:42:03 47.8170 -3.3710 126° Southeast 572 658 33,000  Level FlightAware ADS-B
Thu 05:42:43 47.7550 -3.2410 125° Southeast 572 658 33,000  Level FlightAware ADS-B
Thu 05:43:23 47.6920 -3.1140 126° Southeast 571 657 33,000  Level FlightAware ADS-B
Thu 05:44:08 47.6240 -2.9750 126° Southeast 571 657 33,000  Level FlightAware ADS-B
Thu 05:44:48 47.5630 -2.8550 127° Southeast 572 658 33,000  Level FlightAware ADS-B
Thu 05:45:28 47.4990 -2.7260 126° Southeast 572 658 33,000  Level FlightAware ADS-B
Thu 05:46:13 47.4260 -2.5790 126° Southeast 572 658 33,000  Level FlightAware ADS-B
Thu 05:46:58 47.3580 -2.4440 127° Southeast 571 657 33,000  Level FlightAware ADS-B
Thu 05:47:38 47.2930 -2.3160 127° Southeast 571 657 33,000  Level FlightAware ADS-B
Thu 05:48:18 47.2300 -2.1920 127° Southeast 570 656 33,000  Level FlightAware ADS-B
Thu 05:49:03 47.1580 -2.0530 127° Southeast 569 655 33,000  Level FlightAware ADS-B
Thu 05:49:43 47.1020 -1.9420 127° Southeast 568 654 33,000  Level FlightAware ADS-B
Thu 05:50:28 47.0250 -1.7920 127° Southeast 566 651 33,000  Level FlightAware ADS-B
Thu 05:51:03 46.9670 -1.6820 128° Southeast 567 652 33,000  Level FlightAware ADS-B
Thu 05:51:43 46.9050 -1.5630 127° Southeast 566 651 33,000  Level FlightAware ADS-B
Thu 05:52:23 46.8420 -1.4410 127° Southeast 565 650 33,000  Level FlightAware ADS-B
Thu 05:53:08 46.7700 -1.3050 128° Southeast 564 649 33,000  Level FlightAware ADS-B
Thu 05:53:48 46.7080 -1.1850 127° Southeast 562 647 33,000  Level FlightAware ADS-B
Thu 05:54:28 46.6460 -1.0680 128° Southeast 561 646 33,000  Level FlightAware ADS-B
Thu 05:55:13 46.5750 -0.9370 128° Southeast 561 646 33,000  Level FlightAware ADS-B
Thu 05:55:53 46.5120 -0.8180 128° Southeast 561 646 33,000  Level FlightAware ADS-B
Thu 05:56:38 46.4480 -0.6950 127° Southeast 561 646 33,000  Level FlightAware ADS-B
Thu 05:57:18 46.3950 -0.5930 127° Southeast 561 646 33,000  Level FlightAware ADS-B
Thu 05:58:03 46.3390 -0.4100 114° Southeast 556 640 33,000  Level FlightAware ADS-B
Thu 05:58:43 46.2900 -0.2740 117° Southeast 555 639 33,000  Level FlightAware ADS-B
Thu 05:59:28 46.2380 -0.1280 117° Southeast 558 642 33,000  Level FlightAware ADS-B
Thu 06:00:08 46.1940 0.0020 116° Southeast 556 640 33,000  Level FlightAware ADS-B
Thu 06:00:53 46.1570 0.1600 109° East 556 640 33,000  Level FlightAware ADS-B
Thu 06:01:33 46.1230 0.3090 108° East 557 641 33,000  Level FlightAware ADS-B
Thu 06:02:13 46.0930 0.4440 108° East 558 642 33,000  Level FlightAware ADS-B
Thu 06:02:58 46.0600 0.5980 107° East 558 642 33,000  Level FlightAware ADS-B
Thu 06:03:38 46.0340 0.7190 107° East 558 642 33,000  Level FlightAware ADS-B
Thu 06:04:18 46.0090 0.8400 107° East 558 642 33,000  Level FlightAware ADS-B
Thu 06:04:58 45.9830 0.9610 107° East 558 642 33,000  Level FlightAware ADS-B
Thu 06:05:38 45.9570 1.0820 107° East 558 642 33,000  Level FlightAware ADS-B
Thu 06:06:28 45.9250 1.2330 107° East 558 642 33,000  Level FlightAware ADS-B
Thu 06:07:08 45.9000 1.3530 107° East 558 642 33,000  Level FlightAware ADS-B
Thu 06:07:48 45.8190 1.6330 112° Southeast 564 649 33,000  Level FlightAware ADS-B
Thu 06:08:33 45.7780 1.8060 109° East 564 649 33,000  Level FlightAware ADS-B
Thu 06:09:13 45.7440 1.9480 109° East 564 649 33,000  Level FlightAware ADS-B
Thu 06:09:53 45.7100 2.0890 109° East 564 649 33,000  Level FlightAware ADS-B
Thu 06:10:38 45.6720 2.2440 109° East 564 649 33,000  Level FlightAware ADS-B
Thu 06:11:33 45.6250 2.4410 109° East 564 649 33,000  Level FlightAware ADS-B
Thu 06:12:18 45.5890 2.5880 109° East 564 649 33,000  Level FlightAware ADS-B
Thu 06:12:53 45.5570 2.7180 109° East 563 648 33,000  Level FlightAware ADS-B
Thu 06:13:38 45.5230 2.8590 109° East 563 648 33,000  Level FlightAware ADS-B
Thu 06:14:18 45.4940 2.9780 109° East 563 648 33,000  Level FlightAware ADS-B
Thu 06:14:58 45.4660 3.0970 109° East 563 648 33,000  Level FlightAware ADS-B
Thu 06:15:38 45.4370 3.2170 109° East 563 648 33,000  Level FlightAware ADS-B
Thu 06:16:28 45.4010 3.3660 109° East 563 648 33,000  Level FlightAware ADS-B
Thu 06:17:08 45.3700 3.6010 101° East 558 642 33,000  Level FlightAware ADS-B
Thu 06:17:53 45.3470 3.7810 100° East 558 642 33,000  Level FlightAware ADS-B
Thu 06:18:33 45.3290 3.9070 101° East 555 639 33,000  Level FlightAware ADS-B
Thu 06:19:43 45.2420 4.1270 119° Southeast 553 636 33,000  Level FlightAware ADS-B
Thu 06:21:23 45.0760 4.4140 129° Southeast 550 633 33,000  Level FlightAware ADS-B
Thu 06:22:03 45.0160 4.5220 128° Southeast 549 632 33,000  Level FlightAware ADS-B
Thu 06:22:48 44.9470 4.6530 127° Southeast 543 625 33,000  Level FlightAware ADS-B
Thu 06:23:28 44.8820 4.7690 128° Southeast 544 626 33,000 565 Level FlightAware ADS-B
Thu 06:24:13 44.8120 4.9000 127° Southeast 552 635 33,800 1,271 Climbing FlightAware ADS-B
Thu 06:24:53 44.7530 5.0070 128° Southeast 548 631 34,800 900 Climbing FlightAware ADS-B
Thu 06:25:33 44.6910 5.1210 127° Southeast 545 627 35,000 141 Climbing FlightAware ADS-B
Thu 06:26:18 44.6270 5.2480 125° Southeast 542 624 35,000  Level FlightAware ADS-B
Thu 06:26:58 44.5650 5.3690 126° Southeast 538 619 35,000  Level FlightAware ADS-B
Thu 06:27:38 44.5050 5.4860 126° Southeast 543 625 35,000  Level FlightAware ADS-B
Thu 06:28:23 44.4380 5.6140 126° Southeast 543 625 35,000  Level FlightAware ADS-B
Thu 06:29:03 44.3790 5.7240 127° Southeast 543 625 35,000  Level FlightAware ADS-B
Thu 06:29:43 44.3210 5.8370 126° Southeast 541 623 35,000  Level FlightAware ADS-B
Thu 06:30:23 44.2610 5.9510 126° Southeast 539 620 35,000  Level FlightAware ADS-B
Thu 06:31:13 44.1930 6.0970 123° Southeast 533 613 35,000  Level FlightAware ADS-B
Thu 06:31:53 44.1430 6.2080 122° Southeast 526 605 35,000  Level FlightAware ADS-B
Thu 06:32:33 44.0920 6.3210 122° Southeast 527 606 35,000  Level FlightAware ADS-B
Thu 06:33:18 44.0320 6.4530 122° Southeast 533 613 35,000  Level FlightAware ADS-B
Thu 06:33:58 43.9760 6.5740 123° Southeast 532 612 35,000  Level FlightAware ADS-B
Thu 06:34:33 43.9310 6.6680 124° Southeast 529 609 35,000  Level FlightAware ADS-B
Thu 06:37:00 43.8187 7.1206 109° East  Level Estimated
Thu 06:37:03 43.7350 7.0850 109° East 523 602 35,000  Level FlightAware ADS-B
Thu 06:37:43 43.6790 7.2050 123° Southeast 521 600 35,000  Level FlightAware ADS-B
Thu 06:38:23 43.6260 7.3190 123° Southeast 519 597 35,000  Level FlightAware ADS-B
Thu 06:39:03 43.5730 7.4300 123° Southeast 516 594 35,000  Level FlightAware ADS-B
Thu 06:39:48 43.5150 7.5540 123° Southeast 513 590 35,000  Level FlightAware ADS-B
Thu 06:40:28 43.4600 7.6700 123° Southeast 508 585 35,000  Level FlightAware ADS-B
Thu 06:41:03 43.4200 7.7530 124° Southeast 505 581 35,000  Level FlightAware ADS-B
Thu 06:41:58 43.3450 7.9080 124° Southeast 500 575 35,000  Level FlightAware ADS-B
Thu 06:42:33 43.3010 8.0010 123° Southeast 499 574 35,000  Level FlightAware ADS-B
Thu 06:43:18 43.2430 8.1220 123° Southeast 497 572 35,000  Level FlightAware ADS-B
Thu 06:44:03 43.1880 8.2350 124° Southeast 497 572 35,000  Level FlightAware ADS-B
Thu 06:44:43 43.1380 8.3370 124° Southeast 497 572 35,000  Level FlightAware ADS-B
Thu 06:45:23 43.0860 8.4450 123° Southeast 499 574 35,000  Level FlightAware ADS-B
Thu 06:46:08 43.0300 8.5570 124° Southeast 501 577 35,000  Level FlightAware ADS-B
Thu 06:46:48 42.9790 8.6630 123° Southeast 501 577 35,000  Level FlightAware ADS-B
Thu 06:47:28 42.9230 8.7760 124° Southeast 502 578 35,000  Level FlightAware ADS-B
Thu 06:48:13 42.8640 8.8970 124° Southeast 506 582 35,000  Level FlightAware ADS-B
Thu 06:48:53 42.8120 8.9970 125° Southeast 511 588 35,000  Level FlightAware ADS-B
Thu 06:49:38 42.7520 9.1210 123° Southeast 518 596 35,000  Level FlightAware ADS-B
Thu 06:50:18 42.7140 9.2400 113° Southeast 520 598 35,000  Level FlightAware ADS-B
Thu 06:51:03 42.6750 9.3710 112° Southeast 520 598 35,000  Level FlightAware ADS-B
Thu 06:51:43 42.6350 9.4960 113° Southeast 513 590 35,000  Level FlightAware ADS-B
Thu 06:52:23 42.6000 9.6090 113° Southeast 495 570 35,000  Level FlightAware ADS-B
Thu 06:53:08 42.5600 9.7430 112° Southeast 489 563 35,000  Level FlightAware ADS-B
Thu 06:53:48 42.5270 9.8540 112° Southeast 487 560 35,000  Level FlightAware ADS-B
Thu 06:54:33 42.4890 9.9780 113° Southeast 488 562 35,000  Level FlightAware ADS-B
Thu 06:55:13 42.4540 10.0910 113° Southeast 493 567 35,000  Level FlightAware ADS-B
Thu 06:55:53 42.4190 10.2060 112° Southeast 497 572 35,000  Level FlightAware ADS-B
Thu 06:56:38 42.3730 10.3380 115° Southeast 497 572 35,000  Level FlightAware ADS-B
Thu 06:57:18 42.3230 10.4350 125° Southeast 498 573 35,000  Level FlightAware ADS-B
Thu 06:58:03 42.2630 10.5530 124° Southeast 499 574 35,000  Level FlightAware ADS-B
Thu 06:58:43 42.2090 10.6540 126° Southeast 500 575 35,000  Level FlightAware ADS-B
Thu 06:59:28 42.1480 10.7640 127° Southeast 496 571 35,000  Level FlightAware ADS-B
Thu 07:00:03 42.1000 10.8540 126° Southeast 494 568 35,000 300 Level FlightAware ADS-B
Thu 07:00:48 42.0410 10.9630 126° Southeast 493 567 35,400 800 Climbing FlightAware ADS-B
Thu 07:01:33 41.9800 11.0750 126° Southeast 496 571 36,200 1,059 Climbing FlightAware ADS-B
Thu 07:02:13 41.9240 11.1760 127° Southeast 494 568 36,900 600 Climbing FlightAware ADS-B
Thu 07:02:53 41.8700 11.2740 126° Southeast 495 570 37,000 71 Climbing FlightAware ADS-B
Thu 07:03:38 41.8080 11.3860 127° Southeast 494 568 37,000  Level FlightAware ADS-B
Thu 07:04:18 41.7530 11.4840 127° Southeast 492 566 37,000  Level FlightAware ADS-B
Thu 07:04:58 41.6970 11.5850 127° Southeast 490 564 37,000  Level FlightAware ADS-B
Thu 07:05:43 41.6370 11.6930 127° Southeast 488 562 37,000  Level FlightAware ADS-B
Thu 07:06:28 41.5740 11.8020 128° Southeast 486 559 37,000  Level FlightAware ADS-B
Thu 07:07:08 41.5200 11.9010 126° Southeast 485 558 37,000  Level FlightAware ADS-B
Thu 07:07:48 41.4650 11.9950 128° Southeast 488 562 37,000  Level FlightAware ADS-B
Thu 07:08:33 41.4080 12.1070 124° Southeast 489 563 37,000  Level FlightAware ADS-B
Thu 07:09:13 41.3620 12.2110 120° Southeast 488 562 37,000  Level FlightAware ADS-B
Thu 07:11:00 41.2021 12.4688 129° Southeast  Level FlightAware Approximate
Thu 07:12:00 41.1122 12.6128 130° Southeast  Level FlightAware Approximate
Thu 07:13:00 41.0221 12.7563 130° Southeast  Level FlightAware Approximate
Thu 07:14:00 40.9319 12.8995 130° Southeast  Level FlightAware Approximate
Thu 07:15:00 40.8722 13.0687 107° East  Level FlightAware Approximate
Thu 07:16:00 40.8301 13.2471 107° East  Level FlightAware Approximate
Thu 07:17:00 40.7877 13.4252 107° East  Level FlightAware Approximate
Thu 07:18:00 40.7451 13.6031 107° East  Level FlightAware Approximate
Thu 07:18:18 40.7060 13.6420 107° East 507 583 37,000  Level FlightAware ADS-B
Thu 07:19:03 40.6480 13.7650 122° Southeast 506 582 37,000  Level FlightAware ADS-B
Thu 07:19:43 40.5990 13.8700 122° Southeast 506 582 37,000  Level FlightAware ADS-B
Thu 07:20:28 40.5440 13.9840 122° Southeast 508 585 37,000  Level FlightAware ADS-B
Thu 07:21:08 40.4960 14.0910 121° Southeast 510 587 37,000  Level FlightAware ADS-B
Thu 07:21:48 40.4540 14.2020 116° Southeast 513 590 37,000  Level FlightAware ADS-B
Thu 07:22:33 40.4060 14.3280 117° Southeast 517 595 37,000  Level FlightAware ADS-B
Thu 07:23:13 40.3630 14.4440 116° Southeast 520 598 37,000  Level FlightAware ADS-B
Thu 07:23:53 40.3210 14.5580 116° Southeast 519 597 37,000  Level FlightAware ADS-B
Thu 07:24:38 40.2740 14.6810 117° Southeast 516 594 37,000  Level FlightAware ADS-B
Thu 07:25:18 40.2320 14.7930 116° Southeast 515 593 37,000  Level FlightAware ADS-B
Thu 07:26:03 40.1830 14.9210 117° Southeast 517 595 37,000  Level FlightAware ADS-B
Thu 07:26:43 40.1410 15.0310 117° Southeast 520 598 37,000  Level FlightAware ADS-B
Thu 07:27:23 40.0970 15.1430 117° Southeast 522 601 37,000  Level FlightAware ADS-B
Thu 07:28:03 40.0560 15.2500 117° Southeast 524 603 37,000  Level FlightAware ADS-B
Thu 07:28:48 40.0050 15.3840 116° Southeast 526 605 37,000  Level FlightAware ADS-B
Thu 07:29:33 39.9550 15.5110 117° Southeast 527 606 37,000  Level FlightAware ADS-B
Thu 07:30:08 39.9180 15.6070 117° Southeast 528 608 37,000  Level FlightAware ADS-B
Thu 07:30:58 39.8640 15.7460 117° Southeast 529 609 37,000  Level FlightAware ADS-B
Thu 07:31:38 39.8180 15.8620 117° Southeast 527 606 37,000  Level FlightAware ADS-B
Thu 07:32:18 39.7740 15.9740 117° Southeast 521 600 37,000  Level FlightAware ADS-B
Thu 07:33:03 39.7240 16.1020 117° Southeast 519 597 37,000  Level FlightAware ADS-B
Thu 07:33:43 39.6800 16.2130 117° Southeast 518 596 37,000  Level FlightAware ADS-B
Thu 07:34:23 39.6340 16.3260 118° Southeast 521 600 37,000  Level FlightAware ADS-B
Thu 07:35:08 39.5860 16.4450 118° Southeast 516 594 37,000  Level FlightAware ADS-B
Thu 07:35:48 39.5470 16.5440 117° Southeast 511 588 37,000  Level FlightAware ADS-B
Thu 07:36:28 39.5030 16.6550 117° Southeast 511 588 37,000  Level FlightAware ADS-B
Thu 07:37:13 39.4490 16.7830 119° Southeast 525 604 37,000  Level FlightAware ADS-B
Thu 07:37:53 39.4070 16.8900 117° Southeast 528 608 37,000  Level FlightAware ADS-B
Thu 07:38:38 39.3560 17.0140 118° Southeast 521 600 37,000  Level FlightAware ADS-B
Thu 07:39:13 39.3200 17.1020 118° Southeast 522 601 37,000  Level FlightAware ADS-B
Thu 07:40:03 39.2740 17.2150 118° Southeast 522 601 37,000  Level FlightAware ADS-B
Thu 07:40:43 39.2320 17.3160 118° Southeast 519 597 37,000  Level FlightAware ADS-B
Thu 07:41:28 39.1700 17.4660 118° Southeast 517 595 37,000  Level FlightAware ADS-B
Thu 07:42:08 39.1250 17.5740 118° Southeast 517 595 37,000  Level FlightAware ADS-B
Thu 07:42:48 39.0780 17.6860 118° Southeast 519 597 37,000  Level FlightAware ADS-B
Thu 07:43:28 39.0320 17.7950 118° Southeast 523 602 37,000  Level FlightAware ADS-B
Thu 07:44:08 38.9870 17.9040 118° Southeast 524 603 37,000  Level FlightAware ADS-B
Thu 07:44:58 38.9320 18.0360 118° Southeast 527 606 37,000  Level FlightAware ADS-B
Thu 07:45:38 38.8850 18.1460 119° Southeast 526 605 37,000  Level FlightAware ADS-B
Thu 07:46:08 38.8510 18.2260 119° Southeast 527 606 37,000  Level FlightAware ADS-B
Thu 07:47:18 38.7560 18.4480 119° Southeast 527 606 37,000  Level FlightAware ADS-B
Thu 07:47:53 38.7250 18.5220 118° Southeast 526 605 37,000  Level FlightAware ADS-B
Thu 07:48:38 38.6700 18.6500 119° Southeast 526 605 37,000  Level FlightAware ADS-B
Thu 07:49:18 38.6250 18.7530 119° Southeast 526 605 37,000  Level FlightAware ADS-B
Thu 07:49:58 38.5770 18.8650 119° Southeast 525 604 37,000  Level FlightAware ADS-B
Thu 07:50:58 38.5030 19.0500 117° Southeast 533 613 37,000  Level FlightAware ADS-B
Thu 07:52:08 38.4410 19.2560 111° Southeast 533 613 37,000  Level FlightAware ADS-B
Thu 07:52:43 38.4100 19.3600 111° Southeast 534 615 37,000  Level FlightAware ADS-B
Thu 07:53:33 38.3660 19.5080 111° Southeast 534 615 37,000  Level FlightAware ADS-B
Thu 07:54:43 38.3040 19.7150 111° Southeast 538 619 37,000  Level FlightAware ADS-B
Thu 07:55:53 38.2410 19.9180 112° Southeast 539 620 37,000  Level FlightAware ADS-B
Thu 07:57:03 38.1780 20.1280 111° Southeast 539 620 37,000  Level FlightAware ADS-B
Thu 07:58:13 38.1150 20.3310 111° Southeast 538 619 37,000  Level FlightAware ADS-B
Thu 07:59:23 38.0510 20.5360 112° Southeast 538 619 37,000  Level FlightAware ADS-B
Thu 07:59:58 38.0180 20.6420 112° Southeast 538 619 37,000  Level FlightAware ADS-B
Thu 08:00:48 37.9720 20.7890 112° Southeast 536 617 37,000  Level FlightAware ADS-B
Thu 08:01:53 37.9130 20.9760 112° Southeast 535 616 37,000  Level FlightAware ADS-B
Thu 08:02:53 37.8560 21.1570 112° Southeast 538 619 37,000  Level FlightAware ADS-B
Thu 08:03:33 37.8190 21.2740 112° Southeast 537 618 37,000  Level FlightAware ADS-B
Thu 08:04:18 37.7780 21.3990 113° Southeast 538 619 37,000  Level FlightAware ADS-B
Thu 08:04:58 37.7410 21.5150 112° Southeast 537 618 37,000  Level FlightAware ADS-B
Thu 08:05:33 37.7060 21.6230 112° Southeast 536 617 37,000  Level FlightAware ADS-B
Thu 08:06:23 37.6600 21.7670 112° Southeast 536 617 37,000  Level FlightAware ADS-B
Thu 08:07:03 37.6230 21.8770 113° Southeast 536 617 37,000  Level FlightAware ADS-B
Thu 08:07:48 37.5810 22.0070 112° Southeast 536 617 37,000  Level FlightAware ADS-B
Thu 08:08:28 37.5440 22.1200 112° Southeast 537 618 37,000  Level FlightAware ADS-B
Thu 08:09:08 37.5040 22.2410 113° Southeast 538 619 37,000  Level FlightAware ADS-B
Thu 08:09:53 37.4600 22.3740 113° Southeast 537 618 37,000  Level FlightAware ADS-B
Thu 08:10:33 37.4220 22.4890 113° Southeast 536 617 37,000  Level FlightAware ADS-B
Thu 08:11:18 37.3800 22.6120 113° Southeast 536 617 37,000  Level FlightAware ADS-B
Thu 08:11:58 37.3420 22.7270 113° Southeast 539 620 37,000  Level FlightAware ADS-B
Thu 08:12:38 37.3020 22.8450 113° Southeast 538 619 37,000  Level FlightAware ADS-B
Thu 08:13:23 37.2600 22.9680 113° Southeast 535 616 37,000  Level FlightAware ADS-B
Thu 08:14:03 37.2190 23.0910 113° Southeast 533 613 37,000  Level FlightAware ADS-B
Thu 08:14:48 37.1760 23.2130 114° Southeast 533 613 37,000  Level FlightAware ADS-B
Thu 08:15:23 37.1410 23.3180 113° Southeast 528 608 37,000  Level FlightAware ADS-B
Thu 08:16:08 37.0980 23.4420 113° Southeast 533 613 37,000  Level FlightAware ADS-B
Thu 08:16:53 37.0530 23.5720 113° Southeast 531 611 37,000  Level FlightAware ADS-B
Thu 08:17:33 37.0150 23.6820 113° Southeast 530 610 37,000  Level FlightAware ADS-B
Thu 08:18:18 36.9720 23.8050 114° Southeast 530 610 37,000  Level FlightAware ADS-B
Thu 08:18:58 36.9320 23.9200 113° Southeast 529 609 37,000  Level FlightAware ADS-B
Thu 08:19:38 36.8950 24.0270 113° Southeast 529 609 37,000  Level FlightAware ADS-B
Thu 08:20:23 36.8490 24.1580 114° Southeast 529 609 37,000  Level FlightAware ADS-B
Thu 08:21:08 36.8050 24.2810 114° Southeast 530 610 37,000  Level FlightAware ADS-B
Thu 08:21:48 36.7650 24.3930 114° Southeast 529 609 37,000  Level FlightAware ADS-B
Thu 08:22:28 36.7260 24.5040 114° Southeast 530 610 37,000  Level FlightAware ADS-B
Thu 08:23:13 36.6790 24.6350 114° Southeast 525 604 37,000  Level FlightAware ADS-B
Thu 08:23:53 36.6410 24.7420 114° Southeast 520 598 37,000  Level FlightAware ADS-B
Thu 08:24:33 36.6010 24.8530 114° Southeast 516 594 37,000  Level FlightAware ADS-B
Thu 08:25:18 36.5580 24.9690 115° Southeast 515 593 37,000  Level FlightAware ADS-B
Thu 08:25:58 36.5190 25.0770 114° Southeast 515 593 37,000  Level FlightAware ADS-B
Thu 08:27:23 36.4340 25.3100 114° Southeast 517 595 37,000  Level FlightAware ADS-B
Thu 08:28:18 36.3790 25.4610 114° Southeast 519 597 37,000  Level FlightAware ADS-B
Thu 08:29:03 36.3380 25.5690 115° Southeast 515 593 37,000  Level FlightAware ADS-B
Thu 08:29:38 36.3030 25.6660 114° Southeast 516 594 37,000  Level FlightAware ADS-B
Thu 08:30:23 36.2610 25.7800 115° Southeast 518 596 37,000 114 Level FlightAware ADS-B
Thu 08:31:23 36.1980 25.9480 115° Southeast 520 598 37,200 568 Climbing FlightAware ADS-B
Thu 08:31:58 36.1620 26.0460 114° Southeast 519 597 37,900 1,050 Climbing FlightAware ADS-B
Thu 08:32:43 36.1160 26.1650 116° Southeast 522 601 38,600 660 Climbing FlightAware ADS-B
Thu 08:33:38 36.0600 26.3150 115° Southeast 523 602 39,000 240 Climbing FlightAware ADS-B
Thu 08:34:23 36.0130 26.4400 115° Southeast 521 600 39,000  Level FlightAware ADS-B
Thu 08:34:58 35.9790 26.5300 115° Southeast 520 598 39,000  Level FlightAware ADS-B
Thu 08:35:38 35.9430 26.6240 115° Southeast 522 601 39,000  Level FlightAware ADS-B
Thu 08:36:28 35.8830 26.7770 116° Southeast 522 601 39,000  Level FlightAware ADS-B
Thu 08:37:13 35.8400 26.8900 115° Southeast 522 601 39,000  Level FlightAware ADS-B
Thu 08:37:48 35.8110 26.9680 115° Southeast 521 600 39,000  Level FlightAware ADS-B
Thu 08:38:28 35.7660 27.0830 116° Southeast 519 597 39,000  Level FlightAware ADS-B
Thu 08:39:18 35.7160 27.2100 116° Southeast 519 597 39,000  Level FlightAware ADS-B
Thu 08:40:13 35.6510 27.3790 115° Southeast 520 598 39,000  Level FlightAware ADS-B
Thu 08:40:53 35.6160 27.4700 115° Southeast 520 598 39,000  Level FlightAware ADS-B
Thu 08:41:33 35.5820 27.5620 114° Southeast 520 598 39,000  Level FlightAware ADS-B
Thu 08:42:13 35.5470 27.6530 115° Southeast 520 598 39,000  Level FlightAware ADS-B
Thu 08:43:03 35.5040 27.7670 115° Southeast 520 598 39,000  Level FlightAware ADS-B
Thu 08:43:38 35.4340 27.9310 118° Southeast 526 605 39,000  Level FlightAware ADS-B
Thu 08:44:28 35.3770 28.0700 117° Southeast 529 609 39,000  Level FlightAware ADS-B
Thu 08:45:08 35.3340 28.1770 116° Southeast 528 608 39,000  Level FlightAware ADS-B
Thu 08:45:48 35.2910 28.2870 116° Southeast 527 606 39,000  Level FlightAware ADS-B
Thu 08:46:33 35.2440 28.4020 117° Southeast 527 606 39,000  Level FlightAware ADS-B
Thu 08:47:13 35.2010 28.5090 116° Southeast 527 606 39,000  Level FlightAware ADS-B
Thu 08:47:53 35.1570 28.6160 117° Southeast 526 605 39,000  Level FlightAware ADS-B
Thu 08:48:38 35.1070 28.7380 117° Southeast 524 603 39,000  Level FlightAware ADS-B
Thu 08:49:23 35.0610 28.8510 116° Southeast 520 598 39,000  Level FlightAware ADS-B
Thu 08:49:58 35.0240 28.9440 116° Southeast 519 597 39,000  Level FlightAware ADS-B
Thu 08:50:43 34.9720 29.0680 117° Southeast 523 602 39,000  Level FlightAware ADS-B
Thu 08:51:28 34.9240 29.1840 117° Southeast 523 602 39,000  Level FlightAware ADS-B
Thu 08:52:08 34.8810 29.2890 117° Southeast 522 601 39,000  Level FlightAware ADS-B
Thu 08:52:43 34.8420 29.3830 117° Southeast 521 600 39,000  Level FlightAware ADS-B
Thu 08:53:28 34.7950 29.4960 117° Southeast 521 600 39,000  Level FlightAware ADS-B
Thu 08:54:13 34.7450 29.6130 117° Southeast 517 595 39,000  Level FlightAware ADS-B
Thu 08:54:53 34.7030 29.7150 117° Southeast 519 597 39,000  Level FlightAware ADS-B
Thu 08:55:33 34.6600 29.8170 117° Southeast 520 598 39,000  Level FlightAware ADS-B
Thu 08:56:18 34.6150 29.9290 116° Southeast 520 598 39,000  Level FlightAware ADS-B
Thu 08:57:08 34.5550 30.0620 119° Southeast 524 603 39,000  Level FlightAware ADS-B
Thu 08:58:28 34.4570 30.2610 121° Southeast 523 602 39,000  Level FlightAware ADS-B
Thu 08:59:08 34.4050 30.3680 120° Southeast 525 604 39,000  Level FlightAware ADS-B
Thu 08:59:43 34.3590 30.4630 120° Southeast 528 608 39,000  Level FlightAware ADS-B
Thu 09:00:33 34.2960 30.5920 121° Southeast 532 612 39,000  Level FlightAware ADS-B
Thu 09:01:13 34.2460 30.6960 120° Southeast 537 618 39,000  Level FlightAware ADS-B
Thu 09:01:53 34.1940 30.8020 121° Southeast 537 618 39,000  Level FlightAware ADS-B
Thu 09:02:38 34.1370 30.9200 120° Southeast 535 616 39,000  Level FlightAware ADS-B
Thu 09:03:18 34.0860 31.0230 121° Southeast 535 616 39,000  Level FlightAware ADS-B
Thu 09:04:03 34.0310 31.1360 120° Southeast 534 615 39,000  Level FlightAware ADS-B
Thu 09:04:43 33.9800 31.2380 121° Southeast 533 613 39,000  Level FlightAware ADS-B
Thu 09:05:28 33.9250 31.3470 121° Southeast 532 612 39,000  Level FlightAware ADS-B
Thu 09:06:08 33.8720 31.4540 121° Southeast 532 612 39,000  Level FlightAware ADS-B
Thu 09:06:48 33.8210 31.5550 121° Southeast 531 611 39,000  Level FlightAware ADS-B
Thu 09:07:28 33.7700 31.6560 121° Southeast 530 610 39,000  Level FlightAware ADS-B
Thu 09:08:13 33.7140 31.7700 121° Southeast 529 609 39,000  Level FlightAware ADS-B
Thu 09:08:58 33.6580 31.8830 121° Southeast 529 609 39,000  Level FlightAware ADS-B
Thu 09:09:38 33.6090 31.9780 122° Southeast 530 610 39,000  Level FlightAware ADS-B
Thu 09:10:18 33.5580 32.0780 121° Southeast 529 609 39,000  Level FlightAware ADS-B
Thu 09:10:58 33.5080 32.1760 121° Southeast 529 609 39,000  Level FlightAware ADS-B
Thu 09:11:43 33.4480 32.2930 122° Southeast 529 609 39,000  Level FlightAware ADS-B
Thu 09:12:28 33.3920 32.4030 121° Southeast 528 608 39,000 -375 Level FlightAware ADS-B
Thu 09:13:03 33.3480 32.4880 122° Southeast 531 611 38,500 -2,025 Descending FlightAware ADS-B
Thu 09:13:48 33.2900 32.6010 122° Southeast 529 609 36,300 -2,400 Descending FlightAware ADS-B
Thu 09:14:33 33.2340 32.7110 121° Southeast 522 601 34,900 -1,976 Descending FlightAware ADS-B
Thu 09:15:13 33.1830 32.8100 122° Southeast 509 586 33,500 -2,188 Descending FlightAware ADS-B
Thu 09:15:58 33.1230 32.9250 122° Southeast 495 570 31,800 -1,906 Descending FlightAware ADS-B
Thu 09:16:38 33.0830 33.0030 121° Southeast 478 550 30,800 -1,800 Descending FlightAware ADS-B
Thu 09:17:18 33.0310 33.1060 121° Southeast 467 537 29,400 -2,188 Descending FlightAware ADS-B
Thu 09:18:03 32.9810 33.2040 121° Southeast 457 526 27,700 -2,400 Descending FlightAware ADS-B
Thu 09:18:43 32.9370 33.2910 121° Southeast 450 518 26,000 -2,682 Descending FlightAware ADS-B
Thu 09:19:28 32.8890 33.3840 122° Southeast 449 517 23,900 -2,541 Descending FlightAware ADS-B
Thu 09:20:08 32.8460 33.4670 122° Southeast 438 504 22,400 -2,175 Descending FlightAware ADS-B
Thu 09:20:48 32.8040 33.5480 122° Southeast 423 487 21,000 -1,950 Descending FlightAware ADS-B
Thu 09:21:28 32.7640 33.6260 121° Southeast 408 470 19,800 -1,835 Descending FlightAware ADS-B
Thu 09:22:13 32.7190 33.7120 122° Southeast 393 452 18,400 -1,765 Descending FlightAware ADS-B
Thu 09:22:53 32.6820 33.7830 122° Southeast 383 441 17,300 -1,694 Descending FlightAware ADS-B
Thu 09:23:38 32.6410 33.8610 122° Southeast 373 429 16,000 -1,694 Descending FlightAware ADS-B
Thu 09:24:18 32.6050 33.9310 121° Southeast 366 421 14,900 -1,694 Descending FlightAware ADS-B
Thu 09:25:03 32.5640 34.0090 122° Southeast 359 413 13,600 -1,624 Descending FlightAware ADS-B
Thu 09:25:43 32.5310 34.0730 121° Southeast 352 405 12,600 -1,500 Descending FlightAware ADS-B
Thu 09:26:23 32.4960 34.1390 122° Southeast 344 396 11,600 -1,575 Descending FlightAware ADS-B
Thu 09:27:03 32.4540 34.1980 130° Southeast 338 389 10,500 -988 Descending FlightAware ADS-B
Thu 09:27:48 32.4080 34.2510 136° Southeast 306 352 10,200 -640 Descending FlightAware ADS-B
Thu 09:28:18 32.3790 34.2850 135° Southeast 292 336 9,700 -1,200 Descending FlightAware ADS-B
Thu 09:28:43 32.3530 34.3160 135° Southeast 291 335 9,100 -1,120 Descending FlightAware ADS-B
Thu 09:29:13 32.3330 34.3390 136° Southeast 8,700 -960 Descending FlightAware ADS-B
Thu 09:29:33 32.3090 34.3680 134° Southeast 284 327 8,300 -1,067 Descending FlightAware ADS-B
Thu 09:29:58 32.2860 34.3940 136° Southeast 282 325 7,900 -554 Descending FlightAware ADS-B
Thu 09:30:38 32.2510 34.4350 135° Southeast 282 325 7,700 -764 Descending FlightAware ADS-B
Thu 09:30:53 32.2380 34.4510 134° Southeast 282 325 7,200 -1,500 Descending FlightAware ADS-B
Thu 09:31:18 32.2160 34.4870 126° Southeast 279 321 6,700 -1,091 Descending FlightAware ADS-B
Thu 09:31:48 32.2000 34.5180 121° Southeast 271 312 6,200 -1,050 Descending FlightAware ADS-B
Thu 09:31:58 32.1920 34.5340 121° Southeast 270 311 6,000 -1,050 Descending FlightAware ADS-B
Thu 09:32:28 32.1720 34.5730 121° Southeast 260 299 5,500 -1,029 Descending FlightAware ADS-B
Thu 09:32:33 32.1690 34.5790 121° Southeast 259 298 5,400 -686 Descending FlightAware ADS-B
Thu 09:33:03 32.1500 34.6150 122° Southeast 257 296 5,100 -300 Descending FlightAware ADS-B
Thu 09:33:33 32.1290 34.6520 124° Southeast 258 297 5,100  Level FlightAware ADS-B
Thu 09:34:03 32.1100 34.6860 123° Southeast 259 298 5,100  Level FlightAware ADS-B
Thu 09:34:33 32.0920 34.7190 123° Southeast 245 282 5,100  Level FlightAware ADS-B
Thu 09:35:03 32.0740 34.7530 122° Southeast 214 246 5,100  Level FlightAware ADS-B
Thu 09:35:28 32.0600 34.7750 127° Southeast 194 223 5,100 -218 Level FlightAware ADS-B
Thu 09:35:58 32.0420 34.7960 135° Southeast 192 221 4,900 -450 Descending FlightAware ADS-B
Thu 09:36:08 32.0350 34.8050 133° Southeast 192 221 4,800 -300 Descending FlightAware ADS-B
Thu 09:36:38 32.0150 34.8260 138° Southeast 192 221 4,700 -267 Descending FlightAware ADS-B
Thu 09:36:53 32.0080 34.8340 136° Southeast 193 222 4,600 -933 Descending FlightAware ADS-B
Thu 09:37:23 31.9880 34.8570 136° Southeast 182 209 4,000 -1,200 Descending FlightAware ADS-B
Thu 09:37:58 31.9720 34.8830 126° Southeast 170 196 3,300 -1,114 Descending FlightAware ADS-B
Thu 09:38:33 31.9780 34.9170 78° East 168 193 2,700 -560 Descending FlightAware ADS-B
Thu 09:39:13 31.9850 34.9480 75° East 169 194 2,600 -545 Descending FlightAware ADS-B
Thu 09:39:28 31.9910 34.9600 59° Northeast 160 184 2,200 -600 Descending FlightAware ADS-B
Thu 09:39:53 32.0010 34.9760 54° Northeast 160 184 2,200  Level FlightAware ADS-B
Thu 09:42:00 32.0095 34.8769 276° West  Level Estimated

Login

Don't have an account? Register now (free) for customized features, flight alerts, and more!